Time;durP1;ratioP1;P1;durP2;ratioP2;P2;SDS_P1;SDS_P2;PMS_P1;PMS_P2;Temp;Humidity;BMP_temperature;BMP_pressure;BME280_temperature;BME280_humidity;BME280_pressure;Samples;Min_cycle;Max_cycle;Signal;HPM_P1;HPM_P2
2023/01/31 00:00:06;;;;;;;11.55;1.90;;;;;;;8.40;64.85;102583.09;5024831;28;20437;-41
2023/01/31 00:02:32;;;;;;;15.80;2.40;;;;;;;8.38;65.05;102576.94;5022157;28;20068;-41
2023/01/31 00:04:57;;;;;;;16.63;2.42;;;;;;;8.57;64.52;102577.81;5025472;28;20057;-42
2023/01/31 00:07:22;;;;;;;17.20;3.03;;;;;;;8.57;64.39;102575.22;5021025;28;20053;-40
2023/01/31 00:09:48;;;;;;;11.60;2.38;;;;;;;8.85;63.21;102576.63;5025237;28;20041;-40
2023/01/31 00:12:13;;;;;;;16.30;2.67;;;;;;;8.86;63.01;102577.50;5021270;28;20037;-40
2023/01/31 00:14:38;;;;;;;14.10;2.72;;;;;;;8.75;63.59;102570.91;5025537;28;20033;-40
2023/01/31 00:17:04;;;;;;;16.05;2.22;;;;;;;8.89;62.49;102568.16;5021469;28;20029;-39
2023/01/31 00:19:29;;;;;;;17.50;2.53;;;;;;;8.86;62.49;102565.41;5024528;28;20488;-44
2023/01/31 00:21:54;;;;;;;18.35;2.30;;;;;;;8.69;63.08;102555.91;5021065;28;20064;-40
2023/01/31 00:24:19;;;;;;;10.20;2.13;;;;;;;8.69;62.54;102545.50;5017635;28;20129;-43
2023/01/31 00:26:47;;;;;;;16.25;2.53;;;;;;;8.49;63.25;102546.25;5021578;28;20038;-40
2023/01/31 00:29:12;;;;;;;16.95;2.40;;;;;;;8.38;63.86;102543.13;5017689;28;20496;-41
2023/01/31 00:31:38;;;;;;;14.95;2.65;;;;;;;8.41;63.47;102542.41;5021182;28;20060;-43
2023/01/31 00:34:03;;;;;;;13.38;2.20;;;;;;;8.39;63.63;102520.66;5018367;28;20590;-39
2023/01/31 00:36:31;;;;;;;20.77;3.08;;;;;;;8.44;63.44;102519.16;5020075;28;20061;-41
2023/01/31 00:38:59;;;;;;;14.05;2.35;;;;;;;8.27;63.66;102512.22;5021802;28;20129;-44
2023/01/31 00:41:27;;;;;;;13.00;2.70;;;;;;;8.27;64.11;102509.63;5016927;28;20047;-39
2023/01/31 00:43:53;;;;;;;14.82;2.35;;;;;;;8.36;63.28;102505.78;5021490;28;20072;-40
2023/01/31 00:46:22;;;;;;;12.65;2.35;;;;;;;8.28;63.59;102508.81;5017709;28;20044;-40
2023/01/31 00:48:48;;;;;;;12.02;2.20;;;;;;;8.12;64.15;102500.25;5021158;28;20038;-40
2023/01/31 00:51:14;;;;;;;16.17;2.40;;;;;;;8.27;63.38;102491.44;5017084;28;20507;-41
2023/01/31 00:53:39;;;;;;;12.38;2.35;;;;;;;8.25;63.06;102486.16;5021841;28;20570;-43
2023/01/31 00:56:13;;;;;;;12.45;2.40;;;;;;;8.25;63.24;102491.34;5021465;28;20045;-41
2023/01/31 00:58:39;;;;;;;11.15;2.60;;;;;;;8.20;63.69;102484.16;5018123;28;20447;-41
2023/01/31 01:01:10;;;;;;;11.48;2.55;;;;;;;8.17;64.58;102484.91;5002799;28;20037;-40
2023/01/31 01:03:36;;;;;;;13.88;2.58;;;;;;;8.25;63.76;102485.25;5025438;28;20088;-45
2023/01/31 01:06:02;;;;;;;19.65;2.70;;;;;;;8.14;64.29;102482.16;5025450;28;20352;-42
2023/01/31 01:08:28;;;;;;;13.18;2.58;;;;;;;8.17;64.31;102481.44;5021565;28;20037;-41
2023/01/31 01:10:54;;;;;;;13.82;2.83;;;;;;;8.03;64.92;102475.56;5007069;28;20033;-41
2023/01/31 01:13:19;;;;;;;12.63;2.30;;;;;;;7.99;65.41;102468.44;5021249;28;20063;-41
2023/01/31 01:15:45;;;;;;;14.32;2.80;;;;;;;7.88;65.35;102473.06;5025141;28;20033;-41
2023/01/31 01:18:10;;;;;;;17.42;2.30;;;;;;;7.92;65.64;102464.66;5021198;28;20103;-41
2023/01/31 01:20:35;;;;;;;15.07;2.63;;;;;;;7.87;66.54;102465.25;5024486;28;20392;-41
2023/01/31 01:23:01;;;;;;;16.02;2.72;;;;;;;7.90;67.08;102460.19;5025032;28;20124;-44
2023/01/31 01:25:27;;;;;;;19.17;3.28;;;;;;;7.95;66.90;102457.00;5021098;28;20039;-42
2023/01/31 01:27:52;;;;;;;17.17;3.30;;;;;;;7.95;67.19;102453.50;5026477;28;20042;-40
2023/01/31 01:30:20;;;;;;;19.13;3.22;;;;;;;8.05;67.19;102469.59;5024855;28;20026;-40
2023/01/31 01:32:45;;;;;;;19.90;3.88;;;;;;;8.10;67.96;102472.44;5029258;28;20041;-42
2023/01/31 01:35:11;;;;;;;16.75;2.92;;;;;;;8.08;68.63;102472.38;5023553;28;20454;-42
2023/01/31 01:37:36;;;;;;;25.25;3.80;;;;;;;8.34;67.74;102470.16;5024925;28;20392;-41
2023/01/31 01:40:02;;;;;;;20.90;3.90;;;;;;;8.18;68.72;102478.88;5024717;28;20041;-41
2023/01/31 01:42:33;;;;;;;24.27;3.85;;;;;;;8.27;69.51;102475.84;5020575;28;20041;-42
2023/01/31 01:45:00;;;;;;;19.95;3.53;;;;;;;8.56;68.68;102478.16;5024562;28;20519;-42
2023/01/31 01:47:33;;;;;;;22.00;3.90;;;;;;;8.38;70.27;102474.69;5021988;28;20065;-40
2023/01/31 01:50:01;;;;;;;21.90;4.05;;;;;;;8.41;69.89;102480.03;5026884;28;20041;-42
2023/01/31 01:52:27;;;;;;;19.45;4.28;;;;;;;8.71;68.70;102481.47;5022098;28;20550;-42
2023/01/31 01:55:00;;;;;;;23.95;3.97;;;;;;;8.77;69.11;102480.88;5025601;28;20511;-40
2023/01/31 01:57:31;;;;;;;24.70;3.80;;;;;;;8.66;69.41;102479.50;5021666;28;20065;-40
2023/01/31 02:00:21;;;;;;;19.27;4.15;;;;;;;8.63;70.08;102484.53;5024705;28;20369;-45
2023/01/31 02:02:51;;;;;;;18.50;4.10;;;;;;;8.92;69.31;102478.97;5021741;28;20033;-42
2023/01/31 02:05:23;;;;;;;17.98;3.60;;;;;;;9.20;68.64;102473.28;5020862;28;20034;-41
2023/01/31 02:07:48;;;;;;;20.05;3.65;;;;;;;9.30;68.18;102478.06;5025256;28;20025;-40
2023/01/31 02:10:40;;;;;;;22.52;3.90;;;;;;;9.18;68.04;102482.75;5020246;28;20121;-41
2023/01/31 02:13:07;;;;;;;23.00;4.20;;;;;;;9.17;68.41;102478.34;5020579;28;20037;-41
2023/01/31 02:15:33;;;;;;;23.27;4.40;;;;;;;9.22;68.04;102482.03;5024678;28;20435;-41
2023/01/31 02:17:58;;;;;;;24.13;4.53;;;;;;;9.23;67.28;102483.81;5024086;28;20124;-43
2023/01/31 02:20:39;;;;;;;20.60;3.78;;;;;;;9.16;67.79;102486.97;5019253;28;20093;-45
2023/01/31 02:23:44;;;;;;;18.65;3.95;;;;;;;9.14;67.65;102476.53;5019861;28;20043;-40
2023/01/31 02:26:39;;;;;;;19.48;4.03;;;;;;;9.07;67.87;102469.25;5024536;28;20052;-41
2023/01/31 02:29:16;;;;;;;;;;;;;;;8.99;68.61;102478.41;5018787;28;20038;-41
2023/01/31 02:31:53;;;;;;;18.65;3.95;;;;;;;9.13;68.04;102469.53;5023635;28;19966;-41
2023/01/31 02:34:54;;;;;;;25.58;4.53;;;;;;;9.05;68.62;102468.28;5020972;28;20117;-42
2023/01/31 02:37:52;;;;;;;24.35;4.75;;;;;;;9.10;69.59;102464.16;5020963;28;20384;-41
2023/01/31 02:40:35;;;;;;;20.27;4.30;;;;;;;9.01;70.11;102465.50;4986756;28;20042;-39
2023/01/31 02:44:57;;;;;;;22.30;4.53;;;;;;;9.23;69.71;102450.88;5024830;28;20048;-42
2023/01/31 02:46:25;;;;;;;19.48;4.40;;;;;;;9.28;69.58;102454.56;5016681;28;20037;-42
2023/01/31 02:48:56;;;;;;;22.88;4.85;;;;;;;9.18;69.60;102454.13;5023668;28;20069;-41
2023/01/31 02:51:32;;;;;;;28.90;5.25;;;;;;;9.23;69.78;102448.28;5019115;28;20033;-43
2023/01/31 02:54:14;;;;;;;24.92;5.30;;;;;;;9.17;70.04;102449.72;5021995;28;20029;-44
2023/01/31 02:56:44;;;;;;;20.75;4.80;;;;;;;9.27;69.42;102439.78;5019851;28;20045;-42
2023/01/31 02:59:20;;;;;;;28.70;4.88;;;;;;;9.45;68.93;102446.63;5001486;28;20120;-40
2023/01/31 03:01:49;;;;;;;22.75;4.82;;;;;;;9.47;68.96;102442.34;5023093;28;20030;-41
2023/01/31 03:04:15;;;;;;;24.90;5.10;;;;;;;9.51;68.14;102442.56;5019417;28;20037;-41
2023/01/31 03:06:53;;;;;;;25.63;4.95;;;;;;;9.22;69.21;102440.41;5023347;28;20043;-41
2023/01/31 03:09:28;;;;;;;21.55;4.70;;;;;;;9.38;68.92;102434.16;5023573;28;20059;-42
2023/01/31 03:12:17;;;;;;;24.35;5.22;;;;;;;8.98;70.45;102432.41;5019043;28;20041;-44
2023/01/31 03:15:04;;;;;;;23.33;5.15;;;;;;;9.23;69.39;102426.56;5019606;28;20038;-40
2023/01/31 03:17:52;;;;;;;24.60;4.80;;;;;;;9.25;69.55;102432.75;5019085;28;20515;-40
2023/01/31 03:20:22;;;;;;;21.38;4.95;;;;;;;9.04;70.84;102442.19;5018756;28;20083;-40
2023/01/31 03:22:55;;;;;;;25.33;5.45;;;;;;;8.98;70.38;102437.63;5022445;28;20044;-42
2023/01/31 03:25:25;;;;;;;28.73;4.90;;;;;;;8.91;71.72;102443.34;5019147;28;20061;-40
2023/01/31 03:27:56;;;;;;;26.60;4.97;;;;;;;8.97;71.36;102446.22;5024913;28;20048;-40
2023/01/31 03:30:29;;;;;;;18.30;5.03;;;;;;;9.33;70.30;102439.19;5020196;28;20069;-41
2023/01/31 03:33:07;;;;;;;19.80;5.07;;;;;;;9.45;69.32;102423.19;5024967;28;20087;-44
2023/01/31 03:35:38;;;;;;;25.10;5.18;;;;;;;9.49;69.43;102425.09;5022851;28;20033;-42
2023/01/31 03:38:10;;;;;;;23.50;4.55;;;;;;;9.53;68.50;102413.97;5023622;28;20064;-39
2023/01/31 03:40:40;;;;;;;20.00;4.82;;;;;;;9.22;69.16;102417.88;5024373;28;20117;-41
2023/01/31 03:43:12;;;;;;;17.42;4.30;;;;;;;9.10;69.68;102409.53;5022031;28;20434;-40
2023/01/31 03:45:43;;;;;;;22.10;4.10;;;;;;;9.34;69.58;102394.97;5024636;28;20571;-41
2023/01/31 03:48:13;;;;;;;18.77;4.38;;;;;;;9.36;69.23;102398.56;5021371;28;20037;-40
2023/01/31 03:50:43;;;;;;;18.98;4.68;;;;;;;9.15;69.18;102396.75;5023948;28;20045;-41
2023/01/31 03:53:23;;;;;;;22.55;4.95;;;;;;;9.35;68.85;102393.28;5021327;28;20080;-40
2023/01/31 03:55:58;;;;;;;22.70;4.03;;;;;;;9.18;69.34;102409.88;5024492;28;20044;-42
2023/01/31 03:58:29;;;;;;;20.65;3.75;;;;;;;9.30;69.01;102415.63;5020102;28;20068;-43
2023/01/31 04:00:58;;;;;;;15.70;3.83;;;;;;;9.12;69.59;102420.03;5021875;28;20061;-40
2023/01/31 04:03:29;;;;;;;23.23;4.10;;;;;;;9.54;68.12;102414.06;5018485;28;20041;-41
2023/01/31 04:05:55;;;;;;;17.58;3.25;;;;;;;9.54;67.70;102411.44;5022090;28;20438;-41
2023/01/31 04:08:20;;;;;;;18.27;3.30;;;;;;;9.31;68.42;102410.47;5018214;28;20029;-42
2023/01/31 04:10:46;;;;;;;23.80;3.15;;;;;;;9.47;67.91;102393.78;5022110;28;20042;-42
2023/01/31 04:13:12;;;;;;;17.48;3.25;;;;;;;9.46;67.70;102402.41;5018371;28;20068;-44
2023/01/31 04:15:37;;;;;;;18.90;3.65;;;;;;;9.50;67.36;102386.13;5021900;28;20033;-41
2023/01/31 04:18:02;;;;;;;15.43;3.50;;;;;;;9.62;66.95;102393.53;5021912;28;20049;-41
2023/01/31 04:20:28;;;;;;;22.08;3.67;;;;;;;9.62;66.90;102391.84;5017431;28;20128;-42
2023/01/31 04:22:53;;;;;;;19.85;3.40;;;;;;;9.64;66.59;102384.06;5021242;28;20518;-41
2023/01/31 04:25:18;;;;;;;18.75;3.17;;;;;;;9.69;66.77;102385.16;5018107;28;20036;-41
2023/01/31 04:27:44;;;;;;;18.83;3.30;;;;;;;9.60;66.11;102389.97;5021343;28;20053;-43
2023/01/31 04:30:10;;;;;;;21.85;3.38;;;;;;;9.68;66.30;102376.47;5018000;28;20557;-43
2023/01/31 04:32:35;;;;;;;15.95;3.30;;;;;;;9.75;65.81;102370.69;5021406;28;20037;-41
2023/01/31 04:35:00;;;;;;;18.52;3.58;;;;;;;9.85;65.82;102358.91;5023594;28;20060;-39
2023/01/31 04:37:26;;;;;;;22.98;3.60;;;;;;;9.62;66.22;102362.31;5023897;28;20113;-41
2023/01/31 04:39:51;;;;;;;18.30;2.97;;;;;;;9.79;65.43;102356.06;5028433;28;20103;-41
2023/01/31 04:42:16;;;;;;;16.65;2.90;;;;;;;9.86;65.23;102351.97;5024539;28;20029;-44
2023/01/31 04:44:42;;;;;;;11.75;2.40;;;;;;;10.03;65.11;102356.13;5025586;28;20042;-40
2023/01/31 04:47:07;;;;;;;14.93;2.55;;;;;;;9.99;64.43;102362.06;5022125;28;20039;-41
2023/01/31 04:49:32;;;;;;;14.80;2.63;;;;;;;9.77;64.68;102355.97;5025422;28;20500;-44
2023/01/31 04:51:57;;;;;;;17.05;2.95;;;;;;;9.63;64.89;102358.88;5024790;28;20088;-43
2023/01/31 04:54:23;;;;;;;13.73;2.80;;;;;;;9.94;63.88;102361.84;5020794;28;21096;-41
2023/01/31 04:56:48;;;;;;;12.63;2.42;;;;;;;9.88;63.93;102358.16;5025325;28;20056;-41
2023/01/31 04:59:14;;;;;;;11.45;2.90;;;;;;;9.83;64.05;102344.03;5021410;28;20037;-43
2023/01/31 05:01:40;;;;;;;16.58;2.38;;;;;;;9.76;64.05;102346.38;5024524;28;20488;-45
2023/01/31 05:04:06;;;;;;;17.15;2.78;;;;;;;9.81;64.07;102341.38;5021035;28;20061;-42
2023/01/31 05:06:32;;;;;;;18.58;2.78;;;;;;;9.51;64.70;102337.56;5025094;28;20160;-45
2023/01/31 05:09:00;;;;;;;16.73;2.45;;;;;;;9.76;64.08;102327.25;5025251;28;20087;-42
2023/01/31 05:11:26;;;;;;;18.00;2.60;;;;;;;9.86;63.47;102328.53;5020603;28;20045;-40
2023/01/31 05:13:52;;;;;;;16.33;2.63;;;;;;;9.78;63.83;102323.91;5024674;28;20111;-42
2023/01/31 05:16:17;;;;;;;18.00;3.00;;;;;;;10.14;62.63;102319.22;5021625;28;20496;-41
2023/01/31 05:18:42;;;;;;;11.98;2.70;;;;;;;10.16;62.51;102333.25;5026065;28;20042;-40
2023/01/31 05:21:09;;;;;;;13.60;2.78;;;;;;;10.08;63.00;102334.63;5021529;28;20497;-40
2023/01/31 05:23:35;;;;;;;21.33;3.58;;;;;;;9.81;63.83;102336.19;5026702;28;20034;-43
2023/01/31 05:26:00;;;;;;;15.52;2.80;;;;;;;9.87;63.97;102338.13;5024470;28;20049;-42
2023/01/31 05:28:26;;;;;;;15.65;2.58;;;;;;;9.80;63.79;102339.59;5020899;28;20542;-41
2023/01/31 05:30:52;;;;;;;13.95;2.80;;;;;;;9.71;63.41;102337.50;5023923;28;20091;-43
2023/01/31 05:33:19;;;;;;;13.10;2.42;;;;;;;10.07;62.78;102330.25;5020950;28;20029;-41
2023/01/31 05:35:46;;;;;;;17.30;2.88;;;;;;;10.25;61.97;102322.28;5025279;28;20128;-41
2023/01/31 05:38:11;;;;;;;16.00;2.70;;;;;;;10.26;62.54;102326.66;5022439;28;20403;-42
2023/01/31 05:40:37;;;;;;;14.55;2.72;;;;;;;10.22;62.43;102335.19;5026242;28;20052;-41
2023/01/31 05:43:02;;;;;;;11.10;2.55;;;;;;;9.93;63.65;102339.25;5029976;28;20045;-41
2023/01/31 05:45:29;;;;;;;17.85;3.08;;;;;;;10.23;62.64;102344.81;5022350;28;20037;-43
2023/01/31 05:47:54;;;;;;;15.85;2.38;;;;;;;10.07;63.10;102342.38;5027101;28;20041;-42
2023/01/31 05:50:20;;;;;;;18.25;2.75;;;;;;;10.11;63.20;102349.50;5023981;28;20248;-40
2023/01/31 05:52:53;;;;;;;18.23;2.90;;;;;;;9.86;64.40;102355.47;5027141;28;20029;-41
2023/01/31 05:55:19;;;;;;;13.15;2.58;;;;;;;10.04;63.98;102353.59;5020849;28;20041;-41
2023/01/31 05:57:45;;;;;;;20.77;3.22;;;;;;;10.02;64.27;102347.41;5024491;28;20038;-42
2023/01/31 06:00:12;;;;;;;12.88;2.70;;;;;;;9.85;65.01;102338.06;5020210;28;20033;-42
2023/01/31 06:02:37;;;;;;;14.88;3.55;;;;;;;9.81;64.87;102325.75;5023436;28;20034;-44
2023/01/31 06:05:04;;;;;;;11.60;2.80;;;;;;;10.07;64.86;102329.34;5020743;28;20088;-38
2023/01/31 06:07:29;;;;;;;14.45;3.13;;;;;;;9.96;64.70;102333.25;5023291;28;20061;-40
2023/01/31 06:09:54;;;;;;;15.25;3.08;;;;;;;10.27;64.05;102335.38;5024357;28;20120;-40
2023/01/31 06:12:20;;;;;;;17.63;3.20;;;;;;;10.05;65.09;102328.44;5018286;28;20411;-41
2023/01/31 06:14:45;;;;;;;17.17;2.63;;;;;;;10.03;65.24;102330.06;5023658;28;20044;-41
2023/01/31 06:17:11;;;;;;;15.93;3.20;;;;;;;9.68;66.62;102332.19;5020134;28;20048;-41
2023/01/31 06:19:37;;;;;;;20.98;3.45;;;;;;;9.81;66.71;102320.53;5023799;28;20037;-43
2023/01/31 06:22:03;;;;;;;15.75;2.78;;;;;;;9.96;66.31;102322.84;5023263;28;20044;-41
2023/01/31 06:24:29;;;;;;;16.10;2.80;;;;;;;9.49;67.74;102326.16;5019909;28;20037;-41
2023/01/31 06:26:54;;;;;;;17.60;2.83;;;;;;;9.56;67.78;102326.50;5024839;28;20088;-42
2023/01/31 06:29:19;;;;;;;15.70;2.58;;;;;;;9.71;68.16;102314.06;5020561;28;20037;-42
2023/01/31 06:31:45;;;;;;;17.80;2.65;;;;;;;9.39;69.20;102324.91;5024883;28;20104;-43
2023/01/31 06:34:11;;;;;;;20.08;2.90;;;;;;;9.49;69.20;102321.84;5021139;28;20459;-40
2023/01/31 06:36:36;;;;;;;13.88;2.70;;;;;;;9.92;68.36;102308.81;5024251;28;20042;-41
2023/01/31 06:39:03;;;;;;;16.27;2.78;;;;;;;9.72;68.57;102305.44;5005715;28;20117;-40
2023/01/31 06:41:28;;;;;;;16.80;2.90;;;;;;;9.12;70.73;102308.16;5019088;28;20069;-41
2023/01/31 06:43:54;;;;;;;18.45;2.70;;;;;;;9.50;70.27;102291.50;5023496;28;20072;-41
2023/01/31 06:46:19;;;;;;;15.77;2.53;;;;;;;9.28;70.96;102295.81;5019812;28;20038;-42
2023/01/31 06:48:47;;;;;;;17.45;2.60;;;;;;;9.38;71.04;102293.63;5023349;28;20034;-43
2023/01/31 06:51:12;;;;;;;13.57;2.50;;;;;;;9.39;71.20;102293.69;5018373;28;20040;-41
2023/01/31 06:53:37;;;;;;;15.38;2.42;;;;;;;9.07;71.94;102284.53;5023279;28;20429;-43
2023/01/31 06:56:03;;;;;;;13.75;2.42;;;;;;;8.96;71.95;102281.47;5023170;28;20109;-42
2023/01/31 06:58:28;;;;;;;14.98;2.40;;;;;;;9.19;71.38;102282.44;5018756;28;20527;-43
2023/01/31 07:00:53;;;;;;;10.82;2.60;;;;;;;9.31;70.62;102274.25;5022360;28;20060;-41
2023/01/31 07:03:19;;;;;;;13.00;2.90;;;;;;;9.61;69.65;102262.47;5019189;28;20091;-41
2023/01/31 07:05:45;;;;;;;17.92;2.60;;;;;;;9.52;69.15;102242.97;5022836;28;20030;-41
2023/01/31 07:08:10;;;;;;;12.68;2.10;;;;;;;9.65;68.84;102253.03;5018920;28;20038;-42
2023/01/31 07:10:36;;;;;;;13.50;2.10;;;;;;;9.36;68.52;102252.78;5022519;28;20161;-45
2023/01/31 07:13:01;;;;;;;12.20;2.17;;;;;;;9.31;69.03;102262.13;5022974;28;20128;-41
2023/01/31 07:15:26;;;;;;;12.90;2.08;;;;;;;9.46;68.23;102255.75;5018802;28;20508;-40
2023/01/31 07:17:59;;;;;;;11.93;2.05;;;;;;;9.33;68.71;102259.59;5022616;28;20125;-42
2023/01/31 07:20:24;;;;;;;14.90;2.33;;;;;;;9.24;68.53;102259.22;5018330;28;20045;-44
2023/01/31 07:22:54;;;;;;;13.23;2.22;;;;;;;9.40;67.87;102256.41;5022681;28;20048;-40
2023/01/31 07:25:20;;;;;;;12.13;2.08;;;;;;;9.48;68.02;102260.19;5019053;28;20029;-41
2023/01/31 07:27:45;;;;;;;12.65;1.90;;;;;;;9.57;67.48;102254.47;5022934;28;20500;-40
2023/01/31 07:30:11;;;;;;;10.25;1.88;;;;;;;9.58;67.14;102251.03;5018870;28;20467;-42
2023/01/31 07:32:36;;;;;;;13.88;2.20;;;;;;;9.55;67.57;102249.22;5021842;28;20503;-43
2023/01/31 07:35:02;;;;;;;12.73;2.00;;;;;;;9.61;67.31;102251.16;5022353;28;20491;-44
2023/01/31 07:37:27;;;;;;;14.10;2.08;;;;;;;9.50;67.21;102244.66;5018430;28;20041;-43
2023/01/31 07:39:52;;;;;;;9.93;1.98;;;;;;;9.96;65.66;102242.97;5022707;28;20044;-44
2023/01/31 07:42:18;;;;;;;11.50;1.95;;;;;;;9.89;65.84;102224.44;5020874;28;20030;-39
2023/01/31 07:44:43;;;;;;;12.35;2.40;;;;;;;9.77;66.00;102235.28;5025103;28;20049;-41
2023/01/31 07:47:08;;;;;;;15.15;2.53;;;;;;;9.66;67.14;102231.38;5019010;28;20037;-41
2023/01/31 07:49:33;;;;;;;10.30;2.28;;;;;;;9.65;67.08;102216.59;5021881;28;20048;-41
2023/01/31 07:52:00;;;;;;;15.73;2.25;;;;;;;9.77;67.75;102210.13;5021691;28;20112;-42
2023/01/31 07:54:25;;;;;;;11.43;2.33;;;;;;;9.60;68.24;102208.59;5018035;28;20349;-41
2023/01/31 07:56:51;;;;;;;13.77;2.45;;;;;;;9.54;68.59;102212.69;5025087;28;20036;-41
2023/01/31 07:59:16;;;;;;;15.98;2.47;;;;;;;9.33;68.90;102202.34;5020988;28;20411;-41
2023/01/31 08:04:25;;;;;;;12.73;2.35;;;;;;;9.46;69.21;102219.31;5018049;28;22781;-42
2023/01/31 08:07:01;;;;;;;11.82;2.10;;;;;;;9.69;68.87;102229.81;5021744;28;20473;-41
2023/01/31 08:09:27;;;;;;;13.65;2.40;;;;;;;9.65;68.46;102214.88;5018652;28;20098;-43
2023/01/31 08:11:52;;;;;;;17.48;2.60;;;;;;;9.43;68.63;102217.50;5023194;28;20070;-41
2023/01/31 08:14:22;;;;;;;13.98;2.40;;;;;;;9.55;68.78;102215.38;5019505;28;20037;-40
2023/01/31 08:16:47;;;;;;;12.45;1.98;;;;;;;9.91;67.01;102208.06;5021181;28;20534;-41
2023/01/31 08:19:13;;;;;;;10.65;2.13;;;;;;;9.31;69.13;102209.19;5017972;28;20041;-40
2023/01/31 08:21:38;;;;;;;11.20;2.17;;;;;;;9.38;69.21;102211.22;5021596;28;20093;-42
2023/01/31 08:24:03;;;;;;;12.75;2.30;;;;;;;9.83;67.71;102182.53;5021364;28;20176;-43
2023/01/31 08:26:29;;;;;;;11.82;2.03;;;;;;;9.49;68.66;102190.81;5017954;28;20056;-43
2023/01/31 08:28:55;;;;;;;12.30;2.38;;;;;;;9.28;69.19;102196.03;5021754;28;20092;-42
2023/01/31 08:31:23;;;;;;;15.90;2.20;;;;;;;9.50;68.68;102190.88;5017115;28;20064;-40
2023/01/31 08:33:51;;;;;;;15.25;2.30;;;;;;;9.51;68.90;102182.25;5021458;28;20039;-41
2023/01/31 08:36:20;;;;;;;16.95;2.42;;;;;;;9.68;68.37;102186.38;5017730;28;20103;-38
2023/01/31 08:38:46;;;;;;;15.82;2.47;;;;;;;9.40;69.30;102180.03;5021620;28;20403;-42
2023/01/31 08:41:12;;;;;;;13.20;2.40;;;;;;;9.58;68.78;102196.34;5016941;28;20496;-43
2023/01/31 08:43:38;;;;;;;11.35;2.10;;;;;;;9.63;68.84;102194.84;5021418;28;20041;-42
2023/01/31 08:46:04;;;;;;;14.70;2.35;;;;;;;9.80;68.52;102179.84;5020707;28;20296;-41
2023/01/31 08:48:33;;;;;;;12.02;2.25;;;;;;;9.86;68.32;102187.88;5018705;28;20033;-41
2023/01/31 08:51:00;;;;;;;17.90;2.45;;;;;;;9.69;68.62;102171.63;5020899;28;20057;-42
2023/01/31 08:53:26;;;;;;;15.00;2.55;;;;;;;9.55;69.09;102186.72;5017517;28;20053;-42
2023/01/31 08:55:51;;;;;;;14.50;2.28;;;;;;;9.54;69.64;102200.56;5021530;28;20041;-41
2023/01/31 08:58:16;;;;;;;16.00;2.53;;;;;;;9.99;68.17;102200.53;5017657;28;20558;-45
2023/01/31 09:00:42;;;;;;;16.02;2.40;;;;;;;9.53;70.41;102206.59;5020781;28;20029;-44
2023/01/31 09:03:15;;;;;;;15.10;2.30;;;;;;;9.84;69.47;102213.84;5017517;28;20053;-40
2023/01/31 09:05:40;;;;;;;13.30;2.13;;;;;;;10.16;68.23;102208.16;5021295;28;20061;-40
2023/01/31 09:08:06;;;;;;;22.98;2.65;;;;;;;10.14;68.29;102203.69;5017663;28;20559;-40
2023/01/31 09:10:31;;;;;;;14.48;2.50;;;;;;;10.24;67.55;102202.34;5020662;28;20060;-46
2023/01/31 09:12:58;;;;;;;13.32;2.33;;;;;;;10.21;68.27;102199.63;5021279;28;20527;-41
2023/01/31 09:15:25;;;;;;;13.85;2.35;;;;;;;10.45;66.89;102192.66;5017764;28;20042;-42
2023/01/31 09:17:51;;;;;;;13.75;2.45;;;;;;;10.72;66.35;102188.41;5021766;28;20087;-40
2023/01/31 09:20:16;;;;;;;16.15;2.70;;;;;;;10.45;67.96;102172.69;5017181;28;20033;-44
2023/01/31 09:22:41;;;;;;;14.57;2.45;;;;;;;10.58;67.46;102160.97;5024754;28;20041;-40
2023/01/31 09:25:08;;;;;;;14.35;2.60;;;;;;;10.74;67.00;102172.78;5021152;28;20132;-41
2023/01/31 09:27:34;;;;;;;14.38;2.50;;;;;;;10.67;67.27;102156.06;5024931;28;20440;-42
2023/01/31 09:29:59;;;;;;;18.08;3.20;;;;;;;10.57;67.55;102159.19;5024950;28;20064;-41
2023/01/31 09:32:25;;;;;;;17.92;3.03;;;;;;;10.77;66.88;102159.84;5021865;28;20065;-41
2023/01/31 09:34:50;;;;;;;14.80;2.65;;;;;;;10.44;68.24;102155.25;5025009;28;20101;-41
2023/01/31 09:37:16;;;;;;;17.60;2.83;;;;;;;10.53;67.68;102159.91;5023767;28;20036;-42
2023/01/31 09:39:41;;;;;;;13.65;2.38;;;;;;;11.01;66.59;102144.09;5028267;28;20518;-41
2023/01/31 09:42:27;;;;;;;17.92;3.10;;;;;;;10.50;67.64;102158.09;5023601;28;20059;-41
2023/01/31 09:44:59;;;;;;;20.65;2.97;;;;;;;10.63;68.08;102153.28;5029104;28;20041;-40
2023/01/31 09:47:30;;;;;;;18.17;2.95;;;;;;;10.39;68.46;102151.63;5023457;28;20072;-41
2023/01/31 09:50:22;;;;;;;19.10;2.75;;;;;;;10.32;68.91;102164.38;5027445;28;20069;-44
2023/01/31 09:52:48;;;;;;;16.90;2.90;;;;;;;10.57;68.10;102159.19;5024068;28;20120;-42
2023/01/31 09:55:16;;;;;;;20.38;3.03;;;;;;;10.64;67.86;102153.34;5023952;28;20046;-45
2023/01/31 09:57:53;;;;;;;18.63;2.90;;;;;;;10.81;67.17;102165.22;5027825;28;20056;-44
2023/01/31 10:00:34;;;;;;;20.67;2.85;;;;;;;10.84;68.04;102154.91;5023191;28;20033;-43
2023/01/31 10:03:36;;;;;;;22.85;2.95;;;;;;;10.51;68.40;102161.56;5027226;28;20044;-42
2023/01/31 10:06:04;;;;;;;19.45;3.45;;;;;;;10.77;67.65;102163.34;5023597;28;20458;-44
2023/01/31 10:08:45;;;;;;;14.30;2.95;;;;;;;10.78;67.72;102162.53;5023181;28;20037;-41
2023/01/31 10:11:17;;;;;;;19.83;2.70;;;;;;;10.63;68.38;102177.63;5021476;28;20312;-42
2023/01/31 10:13:56;;;;;;;21.50;3.30;;;;;;;10.49;68.80;102169.34;5024475;28;20041;-41
2023/01/31 10:16:36;;;;;;;17.50;3.38;;;;;;;10.70;68.51;102176.13;5020521;28;20037;-42
2023/01/31 10:19:13;;;;;;;21.40;3.13;;;;;;;10.96;67.88;102176.16;5024179;28;20408;-44
2023/01/31 10:21:45;;;;;;;16.83;3.10;;;;;;;10.40;69.04;102176.88;5019670;28;20033;-41
2023/01/31 10:24:28;;;;;;;15.35;3.25;;;;;;;10.41;68.88;102182.97;5021925;28;20100;-41
2023/01/31 10:27:00;;;;;;;19.33;3.03;;;;;;;10.83;68.30;102166.16;5024802;28;20185;-41
2023/01/31 10:29:42;;;;;;;19.10;3.35;;;;;;;11.05;67.00;102172.94;5023926;28;20402;-43
2023/01/31 10:32:34;;;;;;;18.33;3.10;;;;;;;10.78;68.14;102174.66;5014132;28;20369;-44
2023/01/31 10:35:11;;;;;;;14.65;2.47;;;;;;;11.24;67.27;102162.25;5023772;28;20053;-45
2023/01/31 10:37:41;;;;;;;19.65;3.05;;;;;;;10.78;68.81;102159.03;5019628;28;20140;-42
2023/01/31 10:40:16;;;;;;;15.20;2.63;;;;;;;11.15;67.71;102145.44;5024981;28;20035;-43
2023/01/31 10:42:47;;;;;;;15.63;2.88;;;;;;;11.22;67.37;102152.63;5020740;28;20158;-40
2023/01/31 10:45:29;;;;;;;14.20;2.50;;;;;;;10.77;68.49;102152.03;5021068;28;20040;-42
2023/01/31 10:48:14;;;;;;;16.42;2.97;;;;;;;10.97;68.08;102151.84;5023201;28;20041;-41
2023/01/31 10:50:58;;;;;;;;;;;;;;;10.95;67.87;102153.50;5019623;28;20029;-40
2023/01/31 10:53:45;;;;;;;17.30;3.00;;;;;;;10.86;68.43;102147.97;5020199;28;19924;-41
2023/01/31 10:56:16;;;;;;;17.92;2.72;;;;;;;10.89;68.59;102152.41;5020292;28;20588;-41
2023/01/31 10:58:42;;;;;;;14.45;2.42;;;;;;;10.86;68.85;102162.75;5024515;28;20455;-41
2023/01/31 11:01:10;;;;;;;14.55;2.97;;;;;;;11.18;67.64;102162.06;5018848;28;20045;-45
2023/01/31 11:03:36;;;;;;;14.63;2.75;;;;;;;10.94;68.83;102163.88;5023335;28;20064;-41
2023/01/31 11:06:03;;;;;;;15.05;2.63;;;;;;;11.25;67.94;102168.34;5023808;28;20038;-42
2023/01/31 11:08:56;;;;;;;12.82;2.28;;;;;;;11.12;68.76;102163.59;5020389;28;20041;-43
2023/01/31 11:11:24;;;;;;;15.00;2.55;;;;;;;11.15;68.21;102166.31;5014785;28;20038;-42
2023/01/31 11:13:57;;;;;;;13.98;2.72;;;;;;;11.04;68.75;102173.78;5022963;28;20042;-43
2023/01/31 11:16:24;;;;;;;16.50;2.83;;;;;;;10.69;68.91;102174.34;5018852;28;20030;-41
2023/01/31 11:18:51;;;;;;;17.52;2.50;;;;;;;10.87;68.72;102170.63;5022662;28;20500;-41
2023/01/31 11:21:26;;;;;;;15.30;2.50;;;;;;;11.15;68.34;102171.53;5018324;28;20037;-41
2023/01/31 11:23:57;;;;;;;14.95;2.60;;;;;;;11.06;68.63;102164.28;5023050;28;20037;-41
2023/01/31 11:26:30;;;;;;;18.08;2.70;;;;;;;10.76;68.78;102166.78;5018726;28;20036;-44
2023/01/31 11:28:56;;;;;;;19.92;3.42;;;;;;;10.96;68.66;102168.34;5022881;28;20041;-40
2023/01/31 11:31:32;;;;;;;12.60;2.88;;;;;;;10.99;68.03;102172.75;5018383;28;20029;-42
2023/01/31 11:34:02;;;;;;;15.32;2.60;;;;;;;10.87;69.34;102165.41;5023562;28;20042;-44
2023/01/31 11:36:33;;;;;;;13.98;3.13;;;;;;;11.00;68.71;102156.25;5019762;28;20045;-41